Time;durP1;ratioP1;P1;durP2;ratioP2;P2;SDS_P1;SDS_P2;PMS_P1;PMS_P2;Temp;Humidity;BMP_temperature;BMP_pressure;BME280_temperature;BME280_humidity;BME280_pressure;Samples;Min_cycle;Max_cycle;Signal;HPM_P1;HPM_P2
2022/01/18 00:00:35;;;;;;;3.72;1.10;;;18.40;54.00;;;;;;5070877;28;20222;-84
2022/01/18 00:03:01;;;;;;;5.68;1.10;;;18.40;54.00;;;;;;5048362;28;20174;-85
2022/01/18 00:05:27;;;;;;;3.67;1.00;;;18.40;54.10;;;;;;5064912;28;20220;-84
2022/01/18 00:07:53;;;;;;;3.70;0.95;;;18.40;54.10;;;;;;5048833;28;20181;-84
2022/01/18 00:10:19;;;;;;;8.10;1.30;;;18.40;53.80;;;;;;5047107;28;20664;-84
2022/01/18 00:20:37;;;;;;;3.08;1.05;;;18.30;53.90;;;;;;5063943;28;20184;-84
2022/01/18 00:23:05;;;;;;;2.85;0.85;;;18.40;54.20;;;;;;5064840;28;20154;-85
2022/01/18 00:25:33;;;;;;;3.72;1.00;;;18.30;53.90;;;;;;5047219;28;20173;-86
2022/01/18 00:28:03;;;;;;;3.28;1.08;;;18.40;53.90;;;;;;5048402;28;20594;-84
2022/01/18 00:33:23;;;;;;;3.28;0.73;;;18.40;53.90;;;;;;5051180;28;20154;-84
2022/01/18 00:35:59;;;;;;;3.30;1.20;;;18.30;53.60;;;;;;5049866;28;20682;-84
2022/01/18 00:38:31;;;;;;;2.63;0.90;;;18.30;54.10;;;;;;5065525;28;20177;-84
2022/01/18 00:40:57;;;;;;;5.80;1.35;;;18.30;53.90;;;;;;5065576;28;20180;-84
2022/01/18 00:43:26;;;;;;;5.25;1.10;;;18.30;53.70;;;;;;5048160;28;20162;-86
2022/01/18 00:45:56;;;;;;;2.60;1.13;;;18.30;53.90;;;;;;5064624;28;20162;-85
2022/01/18 00:48:22;;;;;;;3.17;0.98;;;18.40;54.00;;;;;;5081169;28;20168;-84
2022/01/18 00:50:49;;;;;;;2.03;0.95;;;18.30;53.80;;;;;;5047558;28;20600;-85
2022/01/18 00:53:18;;;;;;;4.18;1.02;;;18.40;53.80;;;;;;5048247;28;20214;-85
2022/01/18 00:55:52;;;;;;;4.93;0.88;;;18.40;54.00;;;;;;5064664;28;20150;-85
2022/01/18 00:58:20;;;;;;;4.60;0.82;;;18.30;54.00;;;;;;5050406;28;20328;-84
2022/01/18 01:00:46;;;;;;;3.28;1.10;;;18.30;53.90;;;;;;5057143;28;20217;-85
2022/01/18 01:03:16;;;;;;;2.47;0.90;;;18.30;53.90;;;;;;5047547;28;20221;-84
2022/01/18 01:05:44;;;;;;;8.77;1.00;;;18.30;54.10;;;;;;5065097;28;20204;-84
2022/01/18 01:08:14;;;;;;;6.35;1.25;;;18.30;53.50;;;;;;5050659;28;20154;-85
2022/01/18 01:10:40;;;;;;;1.58;0.82;;;18.30;53.80;;;;;;5068901;28;20154;-84
2022/01/18 01:13:05;;;;;;;4.40;1.10;;;18.30;53.60;;;;;;5051941;28;20172;-84
2022/01/18 01:15:44;;;;;;;3.05;0.90;;;18.40;53.50;;;;;;5051523;28;20146;-84
2022/01/18 01:18:30;;;;;;;2.88;0.88;;;18.30;53.70;;;;;;5068607;28;20172;-84
2022/01/18 01:41:44;;;;;;;2.60;0.90;;;18.30;53.50;;;;;;5067986;28;20155;-86
2022/01/18 01:42:58;;;;;;;3.42;1.10;;;18.30;53.60;;;;;;5066495;28;20154;-84
2022/01/18 01:45:25;;;;;;;2.80;0.80;;;18.30;53.80;;;;;;5052805;28;20185;-85
2022/01/18 01:47:54;;;;;;;2.35;1.08;;;18.30;53.40;;;;;;5066813;28;20151;-84
2022/01/18 01:50:47;;;;;;;3.55;0.95;;;18.30;53.50;;;;;;5049587;28;20190;-84
2022/01/18 01:53:14;;;;;;;7.53;1.15;;;18.30;53.40;;;;;;5050886;28;20166;-84
2022/01/18 01:55:40;;;;;;;4.18;0.85;;;18.30;53.50;;;;;;5050438;28;20197;-85
2022/01/18 01:58:08;;;;;;;1.90;0.93;;;18.30;53.40;;;;;;5049993;28;20151;-84
2022/01/18 02:00:34;;;;;;;3.20;1.00;;;18.20;53.50;;;;;;5072032;28;20221;-84
2022/01/18 02:03:00;;;;;;;3.22;0.85;;;18.20;53.60;;;;;;5049844;28;20312;-85
2022/01/18 02:05:26;;;;;;;3.15;1.00;;;18.20;53.40;;;;;;5049587;28;20158;-84
2022/01/18 02:07:52;;;;;;;1.17;0.77;;;18.20;53.40;;;;;;5049493;28;20240;-85
2022/01/18 02:10:17;;;;;;;2.20;0.80;;;18.20;53.60;;;;;;5049456;28;20202;-85
2022/01/18 02:12:44;;;;;;;1.92;0.88;;;18.30;53.50;;;;;;5067110;28;20159;-84
2022/01/18 02:15:15;;;;;;;1.40;0.73;;;18.20;53.20;;;;;;5050220;28;20194;-84
2022/01/18 02:23:08;;;;;;;3.78;0.80;;;18.30;53.30;;;;;;5066093;28;20208;-84
2022/01/18 02:25:36;;;;;;;3.75;0.95;;;18.30;53.50;;;;;;5048478;28;20222;-85
2022/01/18 02:28:04;;;;;;;2.05;0.80;;;18.20;53.30;;;;;;5049942;28;20162;-84
2022/01/18 02:30:29;;;;;;;1.15;0.95;;;18.20;53.20;;;;;;5050280;28;20216;-85
2022/01/18 02:32:56;;;;;;;2.67;1.08;;;18.30;53.30;;;;;;5050712;28;20613;-83
2022/01/18 02:35:21;;;;;;;2.92;1.00;;;18.20;53.40;;;;;;5068695;28;20166;-84
2022/01/18 02:37:51;;;;;;;3.55;0.88;;;18.20;53.10;;;;;;5051346;28;20173;-83
2022/01/18 02:40:18;;;;;;;2.60;0.75;;;18.20;53.20;;;;;;5051756;28;20241;-84
2022/01/18 02:42:56;;;;;;;1.38;0.70;;;18.20;53.40;;;;;;5051433;28;20158;-83
2022/01/18 02:45:22;;;;;;;4.93;1.13;;;18.20;53.20;;;;;;5054406;28;20188;-84
2022/01/18 02:47:48;;;;;;;4.55;0.90;;;18.20;53.00;;;;;;5052709;28;20162;-83
2022/01/18 02:50:17;;;;;;;5.45;1.20;;;18.20;53.40;;;;;;5068720;28;20186;-84
2022/01/18 02:52:45;;;;;;;2.03;1.05;;;18.20;53.10;;;;;;5053164;28;20173;-84
2022/01/18 02:55:10;;;;;;;3.38;1.02;;;18.30;53.00;;;;;;5053868;28;20208;-84
2022/01/18 02:57:53;;;;;;;1.88;0.90;;;18.30;53.00;;;;;;5070580;28;20162;-84
2022/01/18 03:00:27;;;;;;;1.48;0.75;;;18.20;52.90;;;;;;5059678;28;20226;-84
2022/01/18 03:05:30;;;;;;;2.33;1.10;;;18.20;53.10;;;;;;5052514;28;20177;-85
2022/01/18 03:07:59;;;;;;;2.03;0.70;;;18.20;52.90;;;;;;5050952;28;20185;-85
2022/01/18 03:10:24;;;;;;;2.08;1.00;;;18.20;53.10;;;;;;5067379;28;20193;-85
2022/01/18 03:12:53;;;;;;;3.33;1.02;;;18.20;53.00;;;;;;5050835;28;20174;-84
2022/01/18 03:15:20;;;;;;;2.13;0.68;;;18.10;53.10;;;;;;5067302;28;20162;-85
2022/01/18 03:17:47;;;;;;;1.60;0.80;;;18.20;53.20;;;;;;5050751;28;20151;-84
2022/01/18 03:20:15;;;;;;;3.90;0.90;;;18.30;53.20;;;;;;5051442;28;20159;-84
2022/01/18 03:22:41;;;;;;;2.63;0.85;;;18.20;52.90;;;;;;5050686;28;20613;-84
2022/01/18 03:25:25;;;;;;;1.30;0.80;;;18.20;53.00;;;;;;5049859;28;20158;-86
2022/01/18 03:30:33;;;;;;;2.15;0.80;;;18.10;52.90;;;;;;5065844;28;20186;-85
2022/01/18 03:33:06;;;;;;;1.60;0.80;;;18.10;53.20;;;;;;5066077;28;20165;-84
2022/01/18 03:35:34;;;;;;;2.58;0.73;;;18.20;53.00;;;;;;5066662;28;20166;-85
2022/01/18 03:38:01;;;;;;;4.50;1.10;;;18.20;53.00;;;;;;5049943;28;20165;-84
2022/01/18 03:40:30;;;;;;;1.95;0.65;;;18.20;53.10;;;;;;5049869;28;20174;-85
2022/01/18 03:42:59;;;;;;;2.60;0.90;;;18.10;53.10;;;;;;5049059;28;20177;-85
2022/01/18 03:45:31;;;;;;;2.03;0.80;;;18.20;53.00;;;;;;5048790;28;20150;-84
2022/01/18 03:48:00;;;;;;;3.08;0.90;;;18.10;52.80;;;;;;5032604;28;20331;-85
2022/01/18 03:50:28;;;;;;;1.90;0.80;;;18.20;52.70;;;;;;5049974;28;20553;-84
2022/01/18 03:52:53;;;;;;;1.60;0.85;;;18.20;53.00;;;;;;5049179;28;20609;-84
2022/01/18 03:55:20;;;;;;;0.85;0.73;;;18.10;52.90;;;;;;5049672;28;20158;-84
2022/01/18 03:57:46;;;;;;;1.17;0.70;;;18.20;53.00;;;;;;5049422;28;20166;-84
2022/01/18 04:00:15;;;;;;;2.40;0.82;;;18.10;52.70;;;;;;5052485;28;20210;-85
2022/01/18 04:02:41;;;;;;;2.00;0.90;;;18.10;53.00;;;;;;5050233;28;20170;-84
2022/01/18 04:05:08;;;;;;;2.50;1.15;;;18.10;52.80;;;;;;5050597;28;20186;-84
2022/01/18 04:07:34;;;;;;;1.23;0.80;;;18.10;52.90;;;;;;5049955;28;20186;-85
2022/01/18 04:10:00;;;;;;;3.17;0.90;;;18.10;52.80;;;;;;5049257;28;20193;-84
2022/01/18 04:12:26;;;;;;;3.60;0.80;;;18.10;53.10;;;;;;5049480;28;20203;-84
2022/01/18 04:14:59;;;;;;;1.10;0.90;;;18.20;53.10;;;;;;5049807;28;20177;-85
2022/01/18 04:17:47;;;;;;;1.42;0.82;;;18.10;53.00;;;;;;5065686;28;20157;-85
2022/01/18 04:28:31;;;;;;;3.08;0.80;;;18.10;52.90;;;;;;5050645;28;20182;-85
2022/01/18 04:30:56;;;;;;;2.35;0.75;;;18.10;52.90;;;;;;5054245;28;20237;-85
2022/01/18 04:33:22;;;;;;;2.20;0.80;;;18.10;52.60;;;;;;5049896;28;20189;-85
2022/01/18 04:35:50;;;;;;;4.47;1.17;;;18.10;52.70;;;;;;5049388;28;20244;-85
2022/01/18 04:38:16;;;;;;;2.40;0.80;;;18.00;53.10;;;;;;5049479;28;20261;-85
2022/01/18 04:40:49;;;;;;;2.10;0.80;;;18.20;52.80;;;;;;5050126;28;20159;-84
2022/01/18 04:43:24;;;;;;;1.88;0.90;;;18.10;52.70;;;;;;5066145;28;20166;-85
2022/01/18 04:48:35;;;;;;;2.10;0.98;;;18.10;52.70;;;;;;5065745;28;20162;-84
2022/01/18 04:51:08;;;;;;;1.90;0.80;;;18.10;52.60;;;;;;5049982;28;20154;-85
2022/01/18 04:53:40;;;;;;;4.80;1.00;;;18.00;52.70;;;;;;5066138;28;20193;-85
2022/01/18 04:56:09;;;;;;;3.05;0.70;;;18.10;53.20;;;;;;5049283;28;20169;-85
2022/01/18 04:58:34;;;;;;;1.58;0.80;;;18.10;52.90;;;;;;5050213;28;20237;-85
2022/01/18 05:01:01;;;;;;;1.95;0.70;;;18.10;52.70;;;;;;5057090;28;20225;-84
2022/01/18 05:03:29;;;;;;;1.55;0.70;;;18.10;52.90;;;;;;5049262;28;20162;-85
2022/01/18 05:05:57;;;;;;;2.05;0.82;;;18.00;52.80;;;;;;5048946;28;20147;-84
2022/01/18 05:08:24;;;;;;;1.95;0.93;;;18.00;53.00;;;;;;5049327;28;20190;-86
2022/01/18 05:10:56;;;;;;;2.15;0.70;;;18.00;52.80;;;;;;5048377;28;20169;-85
2022/01/18 05:16:29;;;;;;;3.35;1.10;;;18.00;52.90;;;;;;5050990;28;20516;-86
2022/01/18 05:22:57;;;;;;;3.47;1.13;;;18.00;53.30;;;;;;5049782;28;20280;-84
2022/01/18 05:24:23;;;;;;;2.55;0.70;;;17.90;53.00;;;;;;5049424;28;20237;-85
2022/01/18 05:26:53;;;;;;;1.80;0.68;;;18.00;52.70;;;;;;5047898;28;20200;-84
2022/01/18 05:29:20;;;;;;;2.58;0.90;;;18.00;51.70;;;;;;5063640;28;20197;-86
2022/01/18 05:31:51;;;;;;;2.90;0.70;;;18.10;52.20;;;;;;5063034;28;20174;-84
2022/01/18 05:34:16;;;;;;;3.10;0.85;;;18.10;52.50;;;;;;5046565;28;20162;-84
2022/01/18 05:36:42;;;;;;;1.27;0.73;;;18.10;52.60;;;;;;5046823;28;20220;-84
2022/01/18 05:39:09;;;;;;;1.70;0.63;;;18.10;52.30;;;;;;5046445;28;20222;-84
2022/01/18 05:41:36;;;;;;;1.75;0.80;;;18.10;52.40;;;;;;5046505;28;20609;-84
2022/01/18 05:44:03;;;;;;;2.25;0.80;;;18.10;52.30;;;;;;5046828;28;20170;-85
2022/01/18 05:46:28;;;;;;;2.65;0.77;;;18.10;52.50;;;;;;5063214;28;20173;-84
2022/01/18 05:48:55;;;;;;;2.58;0.90;;;18.10;52.10;;;;;;5046140;28;20197;-85
2022/01/18 05:51:20;;;;;;;0.52;0.50;;;18.10;52.60;;;;;;5045972;28;20182;-84
2022/01/18 05:53:50;;;;;;;3.85;1.08;;;18.10;51.70;;;;;;5063529;28;20166;-84
2022/01/18 05:56:17;;;;;;;1.38;0.70;;;18.20;52.00;;;;;;5049845;28;20154;-84
2022/01/18 05:58:44;;;;;;;2.83;0.80;;;18.20;52.10;;;;;;5050192;28;20161;-84
2022/01/18 06:01:14;;;;;;;2.42;0.82;;;18.20;51.60;;;;;;5060615;28;20220;-85
2022/01/18 06:09:06;;;;;;;3.50;0.70;;;18.20;51.40;;;;;;5050557;28;20547;-84
2022/01/18 06:11:34;;;;;;;0.82;0.60;;;18.20;51.60;;;;;;5048202;28;20166;-85
2022/01/18 06:14:00;;;;;;;0.65;0.50;;;18.20;51.40;;;;;;5048014;28;20204;-85
2022/01/18 06:16:26;;;;;;;2.05;0.80;;;18.20;51.60;;;;;;5048078;28;20180;-86
2022/01/18 06:18:54;;;;;;;1.55;0.70;;;18.20;51.10;;;;;;5048137;28;20203;-85
2022/01/18 06:21:21;;;;;;;1.83;0.80;;;18.30;50.90;;;;;;5064404;28;20178;-85
2022/01/18 06:23:49;;;;;;;1.42;0.52;;;18.30;51.40;;;;;;5064681;28;20241;-86
2022/01/18 06:26:19;;;;;;;1.48;0.70;;;18.30;51.40;;;;;;5048125;28;20209;-85
2022/01/18 06:28:45;;;;;;;1.30;0.63;;;18.20;51.30;;;;;;5063782;28;20228;-84
2022/01/18 06:31:11;;;;;;;1.60;0.80;;;18.20;51.10;;;;;;5047660;28;20170;-85
2022/01/18 06:33:40;;;;;;;2.05;0.70;;;18.30;51.00;;;;;;5045908;28;20173;-85
2022/01/18 06:36:06;;;;;;;2.33;0.70;;;18.30;51.00;;;;;;5043336;28;20154;-86
2022/01/18 06:38:32;;;;;;;2.00;0.70;;;18.30;51.00;;;;;;5043753;28;20174;-85
2022/01/18 06:40:58;;;;;;;0.95;0.80;;;18.30;51.00;;;;;;5044283;28;20163;-84
2022/01/18 06:43:24;;;;;;;1.75;0.57;;;18.30;51.10;;;;;;5045202;28;20173;-85
2022/01/18 06:45:49;;;;;;;1.27;0.60;;;18.30;51.00;;;;;;5044057;28;20219;-85
2022/01/18 06:48:15;;;;;;;1.23;0.63;;;18.30;50.90;;;;;;5060328;28;20153;-84
2022/01/18 06:50:42;;;;;;;1.38;0.65;;;18.30;50.70;;;;;;5044423;28;20269;-85
2022/01/18 06:53:12;;;;;;;1.20;0.65;;;18.20;50.70;;;;;;5062351;28;20166;-86
2022/01/18 06:55:39;;;;;;;0.73;0.43;;;18.30;50.90;;;;;;5044994;28;20166;-85
2022/01/18 06:58:05;;;;;;;1.02;0.60;;;18.40;50.80;;;;;;5059108;28;20214;-86
2022/01/18 07:00:30;;;;;;;1.10;0.80;;;18.30;50.40;;;;;;5047551;28;20264;-86
2022/01/18 07:03:00;;;;;;;1.02;0.73;;;18.30;50.40;;;;;;5058852;28;20170;-85
2022/01/18 07:05:27;;;;;;;2.47;0.82;;;18.30;50.80;;;;;;5041093;28;20620;-85
2022/01/18 07:07:53;;;;;;;2.30;0.80;;;18.30;50.80;;;;;;5058762;28;20169;-84
2022/01/18 07:10:20;;;;;;;1.80;0.70;;;18.30;50.70;;;;;;5058613;28;20198;-85
2022/01/18 07:12:46;;;;;;;1.13;0.65;;;18.30;50.70;;;;;;5041598;28;20193;-85
2022/01/18 07:15:12;;;;;;;2.22;0.68;;;18.30;50.60;;;;;;5042290;28;20601;-86
2022/01/18 07:17:38;;;;;;;2.60;0.50;;;18.30;50.70;;;;;;5041656;28;20165;-86
2022/01/18 07:20:04;;;;;;;11.90;1.20;;;18.30;50.70;;;;;;5041029;28;20240;-86
2022/01/18 07:22:30;;;;;;;7.55;0.73;;;18.30;50.60;;;;;;5041031;28;20174;-87
2022/01/18 07:24:59;;;;;;;9.98;1.35;;;18.30;50.50;;;;;;5040342;28;20174;-84
2022/01/18 07:27:28;;;;;;;8.75;0.90;;;18.30;50.60;;;;;;5074061;28;20249;-86
2022/01/18 07:29:53;;;;;;;5.97;1.00;;;18.40;50.50;;;;;;5057906;28;20189;-86
2022/01/18 07:32:21;;;;;;;7.07;0.90;;;18.40;50.40;;;;;;5043943;28;20177;-86
2022/01/18 07:34:56;;;;;;;2.92;0.63;;;18.40;50.70;;;;;;5050284;28;20188;-86
2022/01/18 07:37:22;;;;;;;7.38;0.90;;;18.40;50.50;;;;;;5052387;28;20207;-85
2022/01/18 07:39:49;;;;;;;8.50;0.90;;;18.40;50.50;;;;;;5048850;28;20170;-86
2022/01/18 07:42:16;;;;;;;4.82;0.70;;;18.30;50.70;;;;;;5043745;28;20147;-87
2022/01/18 07:44:41;;;;;;;2.45;0.90;;;18.40;50.70;;;;;;5044829;28;20186;-86
2022/01/18 07:47:08;;;;;;;4.05;0.90;;;18.30;49.90;;;;;;5043575;28;20166;-89
2022/01/18 07:49:46;;;;;;;7.40;0.80;;;18.40;50.30;;;;;;5045700;28;20212;-86
2022/01/18 07:52:15;;;;;;;0.88;0.52;;;18.40;49.30;;;;;;5049253;28;20241;-88
2022/01/18 07:54:49;;;;;;;1.05;0.50;;;18.40;49.20;;;;;;5044604;28;20612;-88
2022/01/18 07:57:19;;;;;;;3.70;0.60;;;18.40;49.10;;;;;;5047317;28;20168;-88
2022/01/18 07:59:48;;;;;;;3.63;0.57;;;18.40;49.80;;;;;;5046753;28;20212;-87
2022/01/18 08:02:19;;;;;;;2.78;0.73;;;18.40;49.90;;;;;;5070344;28;20212;-89
2022/01/18 08:04:46;;;;;;;1.50;0.68;;;18.40;49.20;;;;;;5036452;28;20274;-88
2022/01/18 08:07:13;;;;;;;4.15;0.90;;;18.40;49.30;;;;;;5037682;28;20191;-87
2022/01/18 08:09:41;;;;;;;2.25;0.70;;;18.50;48.70;;;;;;5038123;28;20217;-88
2022/01/18 08:12:09;;;;;;;2.92;0.88;;;18.50;50.20;;;;;;5022908;28;20171;-88
2022/01/18 08:14:41;;;;;;;2.55;0.55;;;18.50;49.20;;;;;;5037722;28;20162;-88
2022/01/18 08:17:07;;;;;;;2.58;0.70;;;18.50;49.90;;;;;;5038436;28;20175;-87
2022/01/18 08:19:42;;;;;;;3.10;0.70;;;18.50;48.90;;;;;;5024480;28;20222;-86
2022/01/18 08:22:08;;;;;;;0.73;0.45;;;18.50;49.40;;;;;;5026071;28;20179;-87
2022/01/18 08:24:39;;;;;;;7.43;0.88;;;18.50;49.10;;;;;;5039561;28;20162;-86
2022/01/18 08:27:11;;;;;;;2.97;0.63;;;18.50;49.40;;;;;;5021452;28;20191;-87
2022/01/18 08:29:44;;;;;;;1.50;0.65;;;18.50;49.00;;;;;;5025031;28;20234;-87
2022/01/18 08:32:10;;;;;;;2.17;0.70;;;18.50;49.40;;;;;;5024917;28;20254;-86
2022/01/18 08:34:35;;;;;;;1.10;0.60;;;18.50;48.80;;;;;;5022199;28;20195;-88
2022/01/18 08:37:01;;;;;;;3.40;0.70;;;18.60;49.00;;;;;;5018717;28;20730;-88
2022/01/18 08:39:30;;;;;;;1.85;0.63;;;18.50;48.90;;;;;;5020984;28;20188;-86
2022/01/18 08:42:02;;;;;;;2.60;0.70;;;18.50;49.60;;;;;;5036450;28;20182;-87
2022/01/18 08:44:29;;;;;;;1.10;0.55;;;18.50;49.80;;;;;;5045452;28;20182;-86
2022/01/18 08:46:55;;;;;;;3.03;0.60;;;18.50;49.20;;;;;;5041048;28;20187;-85
2022/01/18 08:49:23;;;;;;;2.15;0.70;;;18.50;50.40;;;;;;5041807;28;20600;-85
2022/01/18 08:51:48;;;;;;;1.92;1.00;;;18.50;50.10;;;;;;5045005;28;20165;-87
2022/01/18 08:54:14;;;;;;;3.55;0.60;;;18.50;49.80;;;;;;5043831;28;20257;-85
2022/01/18 08:56:45;;;;;;;1.70;1.13;;;18.50;49.90;;;;;;5042484;28;20247;-87
2022/01/18 08:59:11;;;;;;;2.47;0.65;;;18.50;49.00;;;;;;5042518;28;20257;-85
2022/01/18 09:01:37;;;;;;;1.90;0.77;;;18.60;49.60;;;;;;5040468;28;20299;-84
2022/01/18 09:04:06;;;;;;;1.60;0.55;;;18.50;50.50;;;;;;5053061;28;20190;-83
2022/01/18 09:06:32;;;;;;;1.08;0.63;;;18.40;50.80;;;;;;5037561;28;20185;-87
2022/01/18 09:09:04;;;;;;;0.90;0.70;;;18.60;48.80;;;;;;5039619;28;20190;-85
2022/01/18 09:11:31;;;;;;;6.72;0.80;;;18.60;49.80;;;;;;5040951;28;20150;-83
2022/01/18 09:13:57;;;;;;;1.15;0.65;;;18.50;50.90;;;;;;5057810;28;20194;-87
2022/01/18 09:16:22;;;;;;;1.70;0.60;;;18.50;50.10;;;;;;5045399;28;20702;-87
2022/01/18 09:18:51;;;;;;;1.90;0.50;;;18.60;49.50;;;;;;5048020;28;20155;-87
2022/01/18 09:21:18;;;;;;;2.75;0.57;;;18.50;49.80;;;;;;5045307;28;20162;-85
2022/01/18 09:23:43;;;;;;;2.60;0.70;;;18.60;50.00;;;;;;5053051;28;20186;-86
2022/01/18 09:26:13;;;;;;;1.38;0.73;;;18.60;49.60;;;;;;5045349;28;20166;-86
2022/01/18 09:28:39;;;;;;;2.30;0.50;;;18.60;48.90;;;;;;5060523;28;20217;-86
2022/01/18 09:31:05;;;;;;;2.25;0.65;;;18.70;48.90;;;;;;5045855;28;20162;-87
2022/01/18 09:33:35;;;;;;;2.33;0.70;;;18.70;49.80;;;;;;5047017;28;20189;-87
2022/01/18 09:36:04;;;;;;;1.48;0.60;;;18.70;49.20;;;;;;5048318;28;20166;-87
2022/01/18 09:38:32;;;;;;;1.05;0.65;;;18.60;50.60;;;;;;5047894;28;20639;-86
2022/01/18 09:40:59;;;;;;;0.73;0.50;;;18.60;49.20;;;;;;5045041;28;20173;-85
2022/01/18 09:43:28;;;;;;;1.42;0.60;;;18.60;48.70;;;;;;5062238;28;20146;-86
2022/01/18 09:45:54;;;;;;;0.50;0.47;;;18.80;48.90;;;;;;5062765;28;20245;-87
2022/01/18 09:48:21;;;;;;;0.47;0.40;;;18.70;49.00;;;;;;5047839;28;20165;-87
2022/01/18 09:50:48;;;;;;;3.15;0.52;;;18.70;49.30;;;;;;5062615;28;20198;-85
2022/01/18 09:53:17;;;;;;;0.90;0.60;;;18.60;49.80;;;;;;5044659;28;20154;-85
2022/01/18 09:55:43;;;;;;;3.70;0.88;;;18.70;49.20;;;;;;5061503;28;20158;-85
2022/01/18 09:58:09;;;;;;;2.00;0.60;;;18.80;48.70;;;;;;5046953;28;20192;-85
2022/01/18 10:00:37;;;;;;;1.70;0.75;;;18.80;49.40;;;;;;5049003;28;20232;-85
2022/01/18 10:03:04;;;;;;;1.45;0.60;;;18.70;48.80;;;;;;5039978;28;20170;-86
2022/01/18 10:05:33;;;;;;;1.30;0.60;;;18.70;49.00;;;;;;5038243;28;20589;-87
2022/01/18 10:08:02;;;;;;;2.25;0.77;;;18.70;48.50;;;;;;5039163;28;20196;-85
2022/01/18 10:10:44;;;;;;;1.77;0.60;;;18.80;49.10;;;;;;5042373;28;20178;-83
2022/01/18 10:13:23;;;;;;;1.20;0.45;;;18.70;49.40;;;;;;5059393;28;20320;-86
2022/01/18 10:16:20;;;;;;;1.35;0.63;;;18.80;48.80;;;;;;5075050;28;20536;-84
2022/01/18 10:18:54;;;;;;;1.95;0.52;;;18.80;48.70;;;;;;5055275;28;20208;-84
2022/01/18 10:21:35;;;;;;;3.00;0.70;;;18.80;48.90;;;;;;5040290;28;20167;-85
2022/01/18 10:24:12;;;;;;;1.42;0.50;;;18.80;49.30;;;;;;5058159;28;20165;-87
2022/01/18 10:26:40;;;;;;;2.30;0.60;;;18.80;49.40;;;;;;5057858;28;20241;-88
2022/01/18 10:29:06;;;;;;;1.50;0.65;;;18.80;48.40;;;;;;5039519;28;20190;-86
2022/01/18 10:31:42;;;;;;;3.92;0.60;;;18.80;47.70;;;;;;5055167;28;20237;-85
2022/01/18 10:35:03;;;;;;;3.17;0.50;;;18.90;48.50;;;;;;5042153;28;20157;-85
2022/01/18 10:37:10;;;;;;;2.40;0.63;;;18.80;48.60;;;;;;5057024;28;20185;-85
2022/01/18 10:39:53;;;;;;;1.65;0.65;;;18.80;48.10;;;;;;5062693;28;20158;-84
2022/01/18 10:42:42;;;;;;;1.00;0.70;;;18.90;49.00;;;;;;5058042;28;20203;-85
2022/01/18 10:45:28;;;;;;;2.25;0.52;;;18.90;48.60;;;;;;5043254;28;20192;-84
2022/01/18 10:47:59;;;;;;;0.93;0.52;;;18.90;48.50;;;;;;5055664;28;20154;-85
2022/01/18 10:50:25;;;;;;;1.52;0.55;;;18.90;47.90;;;;;;5038604;28;20190;-85
2022/01/18 10:52:52;;;;;;;2.90;0.80;;;18.80;48.80;;;;;;5038351;28;20166;-86
2022/01/18 10:55:21;;;;;;;1.52;0.60;;;18.90;49.20;;;;;;5038264;28;20249;-88
2022/01/18 10:57:47;;;;;;;0.93;0.55;;;18.90;48.00;;;;;;5039692;28;20190;-84
2022/01/18 11:00:17;;;;;;;1.27;0.60;;;18.90;49.00;;;;;;5058952;28;20228;-87
2022/01/18 11:02:50;;;;;;;1.75;0.60;;;18.80;48.60;;;;;;5040831;28;20162;-86
2022/01/18 11:05:20;;;;;;;1.02;0.50;;;18.80;49.00;;;;;;5042253;28;20260;-84
2022/01/18 11:07:47;;;;;;;0.98;0.55;;;18.90;48.90;;;;;;5057028;28;20166;-84
2022/01/18 11:10:13;;;;;;;1.20;0.60;;;18.90;48.80;;;;;;5036899;28;20228;-85
2022/01/18 11:13:01;;;;;;;2.47;0.80;;;18.90;48.30;;;;;;5055076;28;20159;-86
2022/01/18 11:15:28;;;;;;;1.42;0.60;;;18.90;48.30;;;;;;5055967;28;20154;-86
2022/01/18 11:18:01;;;;;;;1.95;0.50;;;18.90;48.10;;;;;;5055398;28;20169;-85
2022/01/18 11:20:28;;;;;;;0.77;0.50;;;19.00;48.20;;;;;;5055264;28;20166;-83
2022/01/18 11:22:56;;;;;;;0.57;0.40;;;19.00;48.40;;;;;;5055181;28;20159;-84
2022/01/18 11:25:22;;;;;;;1.55;0.70;;;19.00;48.20;;;;;;5038629;28;20163;-86
2022/01/18 11:27:51;;;;;;;1.73;0.50;;;19.00;48.40;;;;;;5036367;28;20166;-87
2022/01/18 11:30:20;;;;;;;2.03;0.80;;;18.90;48.30;;;;;;5036953;28;20189;-84
2022/01/18 11:32:53;;;;;;;0.73;0.60;;;18.90;49.00;;;;;;5040785;28;20168;-86
2022/01/18 11:35:24;;;;;;;3.10;0.60;;;18.90;48.30;;;;;;5038105;28;20162;-86
2022/01/18 11:38:05;;;;;;;4.38;0.60;;;18.90;48.10;;;;;;5037772;28;20200;-84
2022/01/18 11:40:44;;;;;;;4.18;1.08;;;18.90;48.30;;;;;;5038344;28;20158;-85
2022/01/18 11:43:10;;;;;;;3.05;0.82;;;18.90;48.60;;;;;;5037816;28;20158;-85
2022/01/18 11:45:51;;;;;;;2.15;0.65;;;18.80;48.10;;;;;;5056315;28;20564;-85
2022/01/18 11:48:19;;;;;;;4.00;0.90;;;18.90;48.20;;;;;;5059232;28;20225;-86
2022/01/18 11:50:49;;;;;;;4.15;0.80;;;18.90;48.30;;;;;;5037757;28;20229;-86
2022/01/18 11:53:42;;;;;;;3.22;0.93;;;18.90;47.80;;;;;;5037889;28;20147;-87
2022/01/18 11:56:14;;;;;;;2.92;0.70;;;18.90;48.20;;;;;;5042692;28;20151;-87
2022/01/18 11:58:43;;;;;;;1.58;0.68;;;19.00;47.70;;;;;;5022092;28;20196;-85
2022/01/18 12:01:10;;;;;;;2.75;0.70;;;19.00;48.10;;;;;;5050484;28;20261;-85
2022/01/18 12:03:44;;;;;;;1.65;0.70;;;18.90;48.90;;;;;;5056935;28;20164;-85
2022/01/18 12:06:10;;;;;;;2.05;0.65;;;18.90;47.80;;;;;;5056972;28;20181;-85
2022/01/18 12:08:38;;;;;;;2.33;0.52;;;18.90;48.60;;;;;;5041504;28;20188;-84
2022/01/18 12:11:33;;;;;;;1.27;0.60;;;18.90;47.80;;;;;;5042498;28;20298;-86
2022/01/18 12:14:00;;;;;;;2.50;0.50;;;18.90;48.40;;;;;;5046378;28;20209;-85
2022/01/18 12:16:28;;;;;;;3.97;0.70;;;18.90;48.70;;;;;;5042025;28;20180;-86
2022/01/18 12:18:57;;;;;;;1.85;0.50;;;18.90;49.00;;;;;;5043547;28;20160;-85
2022/01/18 12:21:26;;;;;;;1.45;0.75;;;18.90;49.40;;;;;;5057669;28;20164;-85
2022/01/18 12:23:52;;;;;;;2.03;0.70;;;18.80;49.50;;;;;;5041579;28;20169;-84
2022/01/18 12:26:39;;;;;;;1.77;0.63;;;18.90;49.80;;;;;;5043173;28;20539;-86
2022/01/18 12:34:35;;;;;;;1.30;0.60;;;18.80;49.80;;;;;;5065435;28;20146;-86
2022/01/18 12:37:30;;;;;;;1.48;0.73;;;18.80;49.00;;;;;;5082765;28;20146;-87
2022/01/18 12:40:08;;;;;;;1.88;0.52;;;18.90;48.90;;;;;;5068805;28;20186;-87
2022/01/18 12:45:38;;;;;;;2.33;0.60;;;19.00;49.00;;;;;;5071188;28;20172;-89
2022/01/18 12:48:16;;;;;;;1.92;0.55;;;19.00;48.30;;;;;;5084552;28;20536;-86
2022/01/18 12:50:47;;;;;;;2.83;0.80;;;19.00;48.10;;;;;;5063019;28;20180;-86
2022/01/18 12:53:14;;;;;;;0.90;0.50;;;18.90;48.70;;;;;;5061751;28;20157;-86
2022/01/18 12:55:46;;;;;;;1.30;0.50;;;19.00;48.40;;;;;;5062738;28;20187;-86
2022/01/18 12:58:19;;;;;;;1.55;0.60;;;19.00;49.30;;;;;;5063470;28;20202;-85
2022/01/18 13:00:52;;;;;;;1.45;0.50;;;19.00;48.90;;;;;;5065937;28;20225;-87
2022/01/18 13:03:32;;;;;;;0.82;0.60;;;19.00;48.00;;;;;;5068967;28;20173;-87
2022/01/18 13:06:00;;;;;;;1.73;0.80;;;19.00;48.30;;;;;;5065020;28;20215;-88
2022/01/18 13:08:46;;;;;;;0.90;0.50;;;19.10;48.10;;;;;;5066773;28;20516;-88
2022/01/18 13:11:17;;;;;;;4.47;0.60;;;19.10;47.90;;;;;;5081218;28;20272;-85
2022/01/18 13:13:50;;;;;;;4.88;0.65;;;19.10;48.40;;;;;;5079964;28;20150;-85
2022/01/18 13:27:28;;;;;;;1.33;0.60;;;19.00;48.20;;;;;;5064795;28;20157;-87
2022/01/18 13:30:02;;;;;;;2.92;0.80;;;19.00;48.70;;;;;;5063989;28;20260;-87
2022/01/18 13:32:32;;;;;;;1.08;0.60;;;19.00;49.00;;;;;;5060676;28;20164;-86
2022/01/18 13:35:00;;;;;;;2.90;0.85;;;19.00;49.20;;;;;;5061572;28;20205;-86
2022/01/18 13:37:30;;;;;;;0.98;0.70;;;19.00;48.60;;;;;;5077420;28;20150;-86
2022/01/18 13:39:59;;;;;;;1.42;0.80;;;19.00;48.20;;;;;;5060927;28;20161;-87
2022/01/18 13:42:38;;;;;;;0.70;0.40;;;19.10;48.10;;;;;;5076725;28;20161;-86
2022/01/18 13:45:24;;;;;;;1.48;0.43;;;19.10;48.10;;;;;;5061888;28;20165;-86
2022/01/18 13:48:02;;;;;;;1.58;0.60;;;19.10;48.10;;;;;;5079235;28;20208;-85
2022/01/18 13:50:30;;;;;;;2.15;0.60;;;19.10;47.90;;;;;;5061642;28;20262;-87
2022/01/18 13:52:59;;;;;;;1.95;0.73;;;19.10;47.90;;;;;;5060209;28;20581;-86
2022/01/18 13:55:26;;;;;;;1.48;0.65;;;19.10;47.90;;;;;;5077558;28;20154;-87
2022/01/18 13:57:56;;;;;;;2.45;0.68;;;19.10;48.50;;;;;;5063446;28;20597;-86
2022/01/18 14:00:23;;;;;;;1.10;0.50;;;19.10;48.00;;;;;;5063283;28;20212;-86
2022/01/18 14:02:49;;;;;;;0.75;0.40;;;19.00;49.10;;;;;;5063800;28;20165;-85
2022/01/18 14:05:18;;;;;;;2.58;0.73;;;19.00;48.30;;;;;;5065590;28;20169;-85
2022/01/18 14:07:46;;;;;;;1.88;0.55;;;19.00;48.00;;;;;;5062836;28;20315;-86
2022/01/18 14:10:15;;;;;;;0.93;0.60;;;19.00;48.70;;;;;;5064307;28;20193;-86
2022/01/18 14:12:41;;;;;;;2.63;0.43;;;19.00;49.10;;;;;;5064077;28;20177;-86
2022/01/18 14:15:08;;;;;;;1.63;0.82;;;19.00;47.80;;;;;;5062807;28;20655;-88
2022/01/18 14:17:34;;;;;;;1.33;0.95;;;19.00;47.70;;;;;;5061586;28;20160;-85
2022/01/18 14:20:05;;;;;;;2.33;0.50;;;19.10;47.50;;;;;;5064118;28;20162;-84
2022/01/18 14:22:35;;;;;;;3.40;0.70;;;19.00;47.70;;;;;;5061444;28;20175;-85